Bei Facebook empfehlenBei Twitter postenGoogle plusPinterest

Das Wetter im Erzgebirge am 15.06.2017

Wetter und Klima am 15.06.2017 Holzhau im Erzgebirge (630m ü.NN)
Letzte gemessene Temperatur und Uhrzeit der Messung09:00:00 Uhr20.00 °C
Temperatur (Maximum / Höchstwert) und Uhrzeit der Messung08:30:00 Uhr20.30 °C
Temperatur (Minimum / Tiefstwert) und Uhrzeit der Messung05:15:006.40 °C
Errechneter Absolutwert der Temperaturschwankungen zwischen Tmin und Tmax des Tages13.90 K
Errechnete Tagesmitteltemperatur9.68649 °C
Gesamt - Niederschlag des Tages (in flüssiger Form)0.00 Liter / m²
Luftdruck (Maximum / Höchstwert) und Zeitpunkt der Messung00:30:00 Uhr1016.60 hPa
Luftdruck (Minimum / Tiefstwert) und Zeitpunkt der Messung09:00:00 Uhr1015.80 hPa
Errechneter Absolutwert der Luftdruckschwankungen des Tages0.80 hPa
Höchste gemessene Windgeschwindigkeit und Uhrzeit der Messung07:45:00 Uhr27.36 km/h
Errechnete Windhäufigkeit in Relation zu den Messwerten des Tages24.32432 %
Niedrigste Windkühle (Windchill) und Zeitpunkt der Messung03:30:00 Uhr5.30 °C
Taupunkt (Maximum / Höchstwert) und Uhrzeit der Messung08:15:00 Uhr12.40 °C
Taupunkt (Minimum / Tiefstwert) und Uhrzeit der Messung04:45:004.70 °C
Anzahl der automatisch eingelesenen Messwerte 37

Detaillierte Wetter- und Klima- Messwerte für den 15.06.2017 in Holzhau im Erzgebirge (630m ü.NN)
ZeitTemperaturLuftdruckRel. LuftfeuchteWindWindrichtungWindchillTaupunktNiederschlag l/m²
09:00:0020.00 °C1015.80 hPa57.00 %21.96 km/hSSO21.00 °C11.20 °C 
08:45:0020.20 °C1015.80 hPa58.00 %21.96 km/hSSW21.20 °C11.70 °C 
08:30:0020.30 °C1015.80 hPa58.00 %11.80 °C 
08:15:0019.90 °C1016.00 hPa62.00 %12.40 °C 
08:00:0018.90 °C1016.20 hPa63.00 %11.70 °C 
07:45:0018.30 °C1016.10 hPa67.00 %27.36 km/hONO18.80 °C12.10 °C 
07:30:0016.70 °C1016.20 hPa72.00 %11.60 °C 
07:15:0014.10 °C1016.30 hPa80.00 %10.70 °C 
07:00:0010.30 °C1016.30 hPa88.00 %7.92 km/hOSO10.30 °C8.40 °C 
06:45:009.20 °C1016.00 hPa89.00 %7.50 °C 
06:30:008.30 °C1016.00 hPa90.00 %15.48 km/hSO8.30 °C6.80 °C 
06:15:007.50 °C1016.10 hPa90.00 %6.00 °C 
06:00:007.10 °C1016.10 hPa90.00 %5.60 °C 
05:45:006.80 °C1016.10 hPa90.00 %5.30 °C 
05:30:006.50 °C1016.00 hPa90.00 %5.00 °C 
05:15:006.40 °C1016.10 hPa90.00 %4.90 °C 
05:00:006.40 °C1016.00 hPa90.00 %4.90 °C 
04:45:006.40 °C1016.10 hPa89.00 %5.04 km/hONO6.40 °C4.70 °C 
04:30:006.40 °C1016.20 hPa89.00 %4.70 °C 
04:15:006.40 °C1016.20 hPa89.00 %4.70 °C 
04:00:006.60 °C1016.30 hPa89.00 %9.00 km/hO6.60 °C4.90 °C 
03:45:006.60 °C1016.20 hPa89.00 %4.90 °C 
03:30:006.60 °C1016.20 hPa89.00 %24.48 km/hOSO5.30 °C4.90 °C 
03:15:006.60 °C1016.20 hPa88.00 %4.80 °C 
03:00:006.80 °C1016.20 hPa89.00 %5.10 °C 
02:45:006.80 °C1016.10 hPa88.00 %5.00 °C 
02:30:006.80 °C1016.00 hPa87.00 %4.80 °C 
02:15:006.90 °C1016.10 hPa87.00 %4.90 °C 
02:00:007.10 °C1016.20 hPa88.00 %19.44 km/hNNO6.30 °C5.30 °C 
01:45:007.10 °C1016.10 hPa87.00 %5.10 °C 
01:30:007.20 °C1016.10 hPa85.00 %4.90 °C 
01:15:007.60 °C1016.20 hPa87.00 %5.60 °C 
01:00:007.40 °C1016.20 hPa85.00 %5.00 °C 
00:45:007.70 °C1016.40 hPa84.00 %5.20 °C 
00:30:007.90 °C1016.60 hPa84.00 %5.40 °C 
00:15:008.20 °C1016.50 hPa84.00 %5.70 °C 
00:00:008.40 °C1016.20 hPa83.00 %5.70 °C 

Permanenter Link zu dieser Seite: Wetter im Erzgebirge am 15.06.2017
Performance-Info: Die Erstellung der Seite / Statistik(en) / Tabelle(n) erforderte 5 Datenbankserver-Abfrage(n) und dauerte 101 Millisekunden. (Dieser Messwert ist von der Gesamt-Auslastung des Servers abhängig.)
Erzgebirge - Wetter | Erzgebirge - Wetter (Mobilgeräte) | Komplette Klimadatenbank